createdAt,value
2019-01-11T00:00:17.635Z,7.01
2019-01-11T00:00:58.039Z,6.93
2019-01-11T00:01:38.444Z,7.01
2019-01-11T00:02:18.837Z,7.05
2019-01-11T00:02:59.229Z,7.11
2019-01-11T00:03:39.723Z,7.18
2019-01-11T00:04:20.114Z,7.15
2019-01-11T00:05:00.485Z,7.15
2019-01-11T00:05:40.858Z,7.16
2019-01-11T00:06:21.238Z,7.24
2019-01-11T00:07:01.661Z,7.19
2019-01-11T00:07:42.059Z,7.14
2019-01-11T00:08:22.403Z,7
2019-01-11T00:09:02.834Z,7.14
2019-01-11T00:09:43.227Z,7.14
2019-01-11T00:10:23.604Z,7.18
2019-01-11T00:11:03.965Z,7.15
2019-01-11T00:11:44.306Z,7.08
2019-01-11T00:12:24.767Z,7.16
2019-01-11T00:13:05.224Z,7.16
2019-01-11T00:13:45.564Z,7.12
2019-01-11T00:14:26.003Z,7.08
2019-01-11T00:15:06.343Z,7.15
2019-01-11T00:15:46.764Z,7.09
2019-01-11T00:16:27.240Z,7.09
2019-01-11T00:17:07.586Z,7.08
2019-01-11T00:17:48.012Z,6.94
2019-01-11T00:18:28.401Z,6.91
2019-01-11T00:19:08.747Z,6.93
2019-01-11T00:19:49.172Z,6.9
2019-01-11T00:20:29.559Z,6.94
2019-01-11T00:21:09.971Z,6.9
2019-01-11T00:21:50.333Z,6.82
2019-01-11T00:22:30.750Z,6.83
2019-01-11T00:23:11.154Z,6.93
2019-01-11T00:23:51.592Z,6.83
2019-01-11T00:24:31.958Z,6.82
2019-01-11T00:25:12.298Z,6.99
2019-01-11T00:25:52.755Z,6.93
2019-01-11T00:26:33.150Z,6.93
2019-01-11T00:27:13.539Z,7.11
2019-01-11T00:27:53.921Z,6.93
2019-01-11T00:28:34.303Z,7
2019-01-11T00:29:14.646Z,7.09
2019-01-11T00:29:55.106Z,7.09
2019-01-11T00:30:35.485Z,7.15
2019-01-11T00:31:15.873Z,7.18
2019-01-11T00:31:56.378Z,7.15
2019-01-11T00:32:36.697Z,7.15
2019-01-11T00:33:17.050Z,7.15
2019-01-11T00:33:57.784Z,7.18
2019-01-11T00:34:37.902Z,7.15
2019-01-11T00:35:18.249Z,7.16
2019-01-11T00:35:58.606Z,7.18
2019-01-11T00:36:39.046Z,7.16
2019-01-11T00:37:19.372Z,7.11
2019-01-11T00:37:59.825Z,7
2019-01-11T00:38:40.209Z,6.93
2019-01-11T00:39:20.611Z,6.93
2019-01-11T00:40:00.962Z,6.97
2019-01-11T00:40:41.344Z,6.91
2019-01-11T00:41:21.732Z,6.87
2019-01-11T00:42:02.126Z,6.83
2019-01-11T00:42:42.571Z,6.93
2019-01-11T00:43:23.050Z,6.94
2019-01-11T00:44:03.325Z,6.93
2019-01-11T00:44:43.759Z,6.9
2019-01-11T00:45:24.094Z,6.89
2019-01-11T00:46:04.485Z,6.93
2019-01-11T00:46:44.876Z,6.83
2019-01-11T00:47:25.290Z,6.91
2019-01-11T00:48:05.672Z,6.83
2019-01-11T00:48:46.109Z,6.87
2019-01-11T00:49:26.468Z,6.87
2019-01-11T00:50:06.831Z,6.91
2019-01-11T00:50:47.243Z,6.91
2019-01-11T00:51:27.629Z,6.91
2019-01-11T00:52:08.051Z,6.89
2019-01-11T00:52:48.430Z,6.81
2019-01-11T00:53:28.883Z,6.73
2019-01-11T00:54:09.296Z,6.64
2019-01-11T00:54:49.707Z,6.71
2019-01-11T00:55:30.094Z,6.69
2019-01-11T00:56:10.518Z,6.64
2019-01-11T00:56:50.831Z,6.55
2019-01-11T00:57:31.290Z,6.53
2019-01-11T00:58:11.659Z,6.54
2019-01-11T00:58:52.093Z,6.55
2019-01-11T00:59:32.502Z,6.54
2019-01-11T01:00:12.826Z,6.53
2019-01-11T01:00:53.295Z,6.54
2019-01-11T01:01:33.641Z,6.6
2019-01-11T01:02:14.082Z,6.57
2019-01-11T01:02:54.456Z,6.53
2019-01-11T01:03:34.842Z,6.55
2019-01-11T01:04:15.220Z,6.5
2019-01-11T01:04:55.605Z,6.5
2019-01-11T01:05:35.985Z,6.46
2019-01-11T01:06:16.417Z,6.4
2019-01-11T01:06:56.910Z,6.46
2019-01-11T01:07:37.153Z,6.46
2019-01-11T01:08:17.592Z,6.42
2019-01-11T01:08:58.015Z,6.5
2019-01-11T01:09:38.445Z,6.46
2019-01-11T01:10:18.836Z,6.32
2019-01-11T01:10:59.266Z,6.38
2019-01-11T01:11:39.588Z,6.35
2019-01-11T01:12:20.004Z,6.25
2019-01-11T01:13:00.493Z,6.25
2019-01-11T01:13:40.837Z,6.3
2019-01-11T01:14:21.243Z,6.38
2019-01-11T01:15:01.587Z,6.35
2019-01-11T01:15:42.023Z,6.35
2019-01-11T01:16:22.435Z,6.39
2019-01-11T01:17:02.884Z,6.32
2019-01-11T01:17:43.190Z,6.28
2019-01-11T01:18:23.603Z,6.27
2019-01-11T01:19:03.979Z,6.21
2019-01-11T01:19:44.401Z,6.21
2019-01-11T01:20:24.708Z,6.11
2019-01-11T01:21:05.233Z,6.21
2019-01-11T01:21:45.476Z,6.08
2019-01-11T01:22:25.931Z,6.19
2019-01-11T01:23:06.250Z,6.21
2019-01-11T01:23:46.756Z,6.19
2019-01-11T01:24:27.083Z,6.19
2019-01-11T01:25:07.497Z,6.25
2019-01-11T01:25:47.891Z,6.16
2019-01-11T01:26:28.262Z,6.11
2019-01-11T01:27:08.630Z,6.11
2019-01-11T01:27:48.964Z,6.14
2019-01-11T01:28:29.434Z,6.14
2019-01-11T01:29:09.757Z,6.17
2019-01-11T01:29:50.163Z,6.17
2019-01-11T01:30:30.558Z,6.11
2019-01-11T01:31:11.009Z,6.08
2019-01-11T01:31:51.377Z,6.05
2019-01-11T01:32:31.818Z,6.01
2019-01-11T01:33:12.179Z,6.05
2019-01-11T01:33:52.544Z,6.03
2019-01-11T01:34:32.940Z,6.05
2019-01-11T01:35:13.277Z,6.02
2019-01-11T01:35:53.846Z,5.99
2019-01-11T01:36:34.157Z,6.06
2019-01-11T01:37:14.494Z,6.02
2019-01-11T01:37:54.929Z,6.06
2019-01-11T01:38:35.267Z,6.05
2019-01-11T01:39:15.681Z,5.9
2019-01-11T01:39:56.075Z,5.93
2019-01-11T01:40:36.590Z,6.02
2019-01-11T01:41:16.853Z,6.01
2019-01-11T01:41:57.245Z,6.05
2019-01-11T01:42:37.646Z,5.93
2019-01-11T01:43:18.060Z,6.11
2019-01-11T01:43:58.451Z,6.1
2019-01-11T01:44:38.857Z,6.13
2019-01-11T01:45:19.199Z,6.13
2019-01-11T01:45:59.675Z,6.17
2019-01-11T01:46:40.110Z,6.14
2019-01-11T01:47:20.496Z,6.21
2019-01-11T01:48:00.844Z,6.1
2019-01-11T01:48:41.284Z,6.27
2019-01-11T01:49:26.464Z,6.27
2019-01-11T01:50:02.056Z,6.3
2019-01-11T01:50:42.605Z,6.27
2019-01-11T01:51:22.967Z,6.27
2019-01-11T01:52:03.288Z,6.24
2019-01-11T01:52:43.777Z,6.38
2019-01-11T01:53:24.062Z,6.24
2019-01-11T01:54:04.462Z,6.3
2019-01-11T01:54:44.848Z,6.24
2019-01-11T01:55:25.257Z,6.21
2019-01-11T01:56:05.733Z,6.27
2019-01-11T01:56:46.093Z,6.42
2019-01-11T01:57:26.436Z,6.45
2019-01-11T01:58:06.855Z,6.45
2019-01-11T01:58:47.199Z,6.46
2019-01-11T01:59:27.648Z,6.38
2019-01-11T02:00:08.023Z,6.33
2019-01-11T02:00:48.411Z,6.21
2019-01-11T02:01:28.865Z,6.24
2019-01-11T02:02:09.250Z,6.21
2019-01-11T02:02:49.692Z,6.2
2019-01-11T02:03:30.120Z,6.16
2019-01-11T02:04:10.423Z,6.21
2019-01-11T02:04:50.869Z,6.16
2019-01-11T02:05:31.286Z,6.11
2019-01-11T02:06:11.685Z,6.25
2019-01-11T02:06:52.207Z,6.13
2019-01-11T02:07:32.650Z,6.24
2019-01-11T02:08:13.035Z,6.19
2019-01-11T02:08:53.470Z,6.11
2019-01-11T02:09:33.842Z,6.25
2019-01-11T02:10:14.271Z,6.3
2019-01-11T02:10:54.745Z,6.35
2019-01-11T02:11:35.038Z,6.42
2019-01-11T02:12:15.479Z,6.48
2019-01-11T02:12:55.834Z,6.39
2019-01-11T02:13:36.240Z,6.48
2019-01-11T02:14:16.625Z,6.43
2019-01-11T02:14:57.023Z,6.42
2019-01-11T02:15:37.413Z,6.46
2019-01-11T02:16:17.761Z,6.36
2019-01-11T02:16:58.240Z,6.4
2019-01-11T02:17:38.603Z,6.39
2019-01-11T02:18:19.002Z,6.4
2019-01-11T02:18:59.389Z,6.43
2019-01-11T02:19:39.831Z,6.35
2019-01-11T02:20:20.157Z,6.36
2019-01-11T02:21:00.607Z,6.42
2019-01-11T02:21:41.009Z,6.4
2019-01-11T02:22:21.460Z,6.4
2019-01-11T02:23:01.800Z,6.3
2019-01-11T02:23:42.288Z,6.42
2019-01-11T02:24:22.637Z,6.33
2019-01-11T02:25:03.065Z,6.4
2019-01-11T02:25:46.219Z,6.43
2019-01-11T02:26:23.798Z,6.43
2019-01-11T02:27:04.149Z,6.35
2019-01-11T02:27:44.645Z,6.35
2019-01-11T02:28:24.985Z,6.36
2019-01-11T02:29:05.341Z,6.48
2019-01-11T02:29:45.779Z,6.48
2019-01-11T02:30:26.216Z,6.45
2019-01-11T02:31:06.623Z,6.54
2019-01-11T02:31:46.995Z,6.48
2019-01-11T02:32:27.400Z,6.4
2019-01-11T02:33:07.792Z,6.5
2019-01-11T02:33:48.193Z,6.45
2019-01-11T02:34:28.621Z,6.45
2019-01-11T02:35:09.034Z,6.43
2019-01-11T02:35:49.624Z,6.43
2019-01-11T02:36:30.059Z,6.43
2019-01-11T02:37:10.423Z,6.4
2019-01-11T02:37:50.791Z,6.36
2019-01-11T02:38:32.264Z,6.4
2019-01-11T02:39:11.681Z,6.46
2019-01-11T02:39:52.096Z,6.5
2019-01-11T02:40:32.481Z,6.45
2019-01-11T02:41:12.868Z,6.46
2019-01-11T02:41:53.280Z,6.4
2019-01-11T02:42:33.609Z,6.4
2019-01-11T02:43:14.026Z,6.36
2019-01-11T02:43:54.560Z,6.35
2019-01-11T02:44:34.934Z,6.3
2019-01-11T02:45:15.298Z,6.32
2019-01-11T02:45:55.676Z,6.32
2019-01-11T02:46:36.161Z,6.28
2019-01-11T02:47:16.597Z,6.24
2019-01-11T02:47:56.973Z,6.28
2019-01-11T02:48:37.391Z,6.17
2019-01-11T02:49:17.866Z,6.35
2019-01-11T02:49:58.211Z,6.35
2019-01-11T02:50:38.572Z,6.27
2019-01-11T02:51:18.995Z,6.21
2019-01-11T02:51:59.457Z,6.11
2019-01-11T02:52:39.935Z,6.13
2019-01-11T02:53:20.277Z,6.11
2019-01-11T02:54:00.711Z,6.08
2019-01-11T02:54:41.088Z,6.17
2019-01-11T02:55:21.424Z,6.13
2019-01-11T02:56:01.917Z,6.11
2019-01-11T02:56:42.299Z,6.14
2019-01-11T02:57:22.790Z,6.1
2019-01-11T02:58:03.178Z,6.2
2019-01-11T02:58:43.600Z,6.19
2019-01-11T02:59:24.147Z,6.21
2019-01-11T03:00:04.532Z,6.16
2019-01-11T03:00:44.886Z,6.17
2019-01-11T03:01:25.330Z,6.16
2019-01-11T03:02:05.744Z,6.14
2019-01-11T03:02:46.100Z,6.13
2019-01-11T03:03:26.539Z,6.19
2019-01-11T03:04:06.909Z,6.1
2019-01-11T03:04:47.387Z,6.16
2019-01-11T03:05:27.704Z,6.16
2019-01-11T03:06:08.196Z,6.19
2019-01-11T03:06:48.636Z,6.1
2019-01-11T03:07:29.010Z,6.24
2019-01-11T03:08:09.399Z,6.2
2019-01-11T03:08:49.734Z,6.14
2019-01-11T03:09:30.201Z,6.14
2019-01-11T03:10:10.561Z,6.17
2019-01-11T03:10:51.703Z,6.19
2019-01-11T03:11:31.318Z,6.17
2019-01-11T03:12:11.686Z,6.3
2019-01-11T03:12:52.147Z,6.17
2019-01-11T03:13:32.553Z,6.13
2019-01-11T03:14:13.006Z,6.25
2019-01-11T03:14:53.391Z,6.14
2019-01-11T03:15:33.774Z,6.08
2019-01-11T03:16:14.144Z,6.19
2019-01-11T03:16:54.573Z,6.08
2019-01-11T03:17:35.045Z,6.11
2019-01-11T03:18:15.377Z,6.2
2019-01-11T03:18:55.679Z,6.19
2019-01-11T03:19:36.105Z,6.14
2019-01-11T03:20:16.472Z,6.11
2019-01-11T03:20:56.869Z,6.11
2019-01-11T03:21:37.269Z,6.24
2019-01-11T03:22:17.625Z,6.19
2019-01-11T03:22:58.059Z,6.14
2019-01-11T03:23:38.468Z,6.05
2019-01-11T03:24:18.804Z,6.01
2019-01-11T03:25:01.845Z,6.01
2019-01-11T03:25:44.065Z,5.99
2019-01-11T03:26:24.806Z,6.05
2019-01-11T03:27:05.317Z,6.1
2019-01-11T03:27:46.028Z,6.17
2019-01-11T03:28:26.396Z,6.14
2019-01-11T03:29:07.042Z,6.1
2019-01-11T03:29:47.523Z,6.19
2019-01-11T03:30:28.383Z,6.11
2019-01-11T03:31:09.532Z,6.13
2019-01-11T03:31:49.984Z,6.11
2019-01-11T03:32:30.358Z,6.05
2019-01-11T03:33:10.906Z,6.1
2019-01-11T03:33:51.599Z,6.06
2019-01-11T03:34:32.404Z,6.14
2019-01-11T03:35:14.044Z,6.13
2019-01-11T03:35:54.723Z,6.17
2019-01-11T03:36:35.154Z,6.11
2019-01-11T03:37:15.757Z,6.17
2019-01-11T03:37:56.707Z,6.21
2019-01-11T03:38:38.166Z,6.21
2019-01-11T03:39:18.960Z,6.11
2019-01-11T03:40:04.754Z,6.17
2019-01-11T03:40:45.498Z,6.14
2019-01-11T03:41:26.361Z,6.14
2019-01-11T03:42:06.600Z,6.17
2019-01-11T03:42:47.751Z,6.08
2019-01-11T03:43:28.657Z,6.24
2019-01-11T03:44:09.134Z,6.16
2019-01-11T03:44:52.429Z,6.19
2019-01-11T03:45:33.940Z,6.24
2019-01-11T03:46:14.246Z,6.16
2019-01-11T03:46:54.824Z,6.19
2019-01-11T03:47:35.271Z,6.14
2019-01-11T03:48:17.291Z,6.16
2019-01-11T03:48:57.868Z,6.16
2019-01-11T03:49:38.240Z,6.19
2019-01-11T03:50:18.924Z,6.11
2019-01-11T03:50:59.407Z,6.03
2019-01-11T03:51:39.812Z,6.01
2019-01-11T03:52:21.105Z,6.01
2019-01-11T03:53:01.423Z,6.05
2019-01-11T03:53:42.052Z,6.05
2019-01-11T03:54:22.684Z,6.02
2019-01-11T03:55:04.982Z,6.01
2019-01-11T03:55:51.044Z,6.01
2019-01-11T03:56:35.956Z,6.01
2019-01-11T03:57:18.934Z,6.05
2019-01-11T03:58:00.433Z,5.99
2019-01-11T03:58:41.434Z,5.96
2019-01-11T03:59:22.945Z,6.08
2019-01-11T04:00:05.794Z,6.08
2019-01-11T04:00:49.655Z,6.14
2019-01-11T04:01:30.319Z,6.13
2019-01-11T04:02:11.125Z,6.21
2019-01-11T04:02:52.054Z,6.11
2019-01-11T04:03:33.012Z,6.2
2019-01-11T04:04:13.873Z,6.2
2019-01-11T04:04:55.501Z,6.2
2019-01-11T04:05:36.096Z,6.05
2019-01-11T04:06:17.777Z,6.1
2019-01-11T04:06:59.054Z,6.16
2019-01-11T04:07:40.192Z,6.19
2019-01-11T04:08:20.805Z,6.1
2019-01-11T04:09:03.053Z,6.13
2019-01-11T04:09:43.586Z,6.16
2019-01-11T04:10:24.261Z,6.16
2019-01-11T04:11:08.649Z,6.19
2019-01-11T04:11:53.140Z,6.19
2019-01-11T04:12:37.810Z,6.21
2019-01-11T04:13:18.674Z,6.19
2019-01-11T04:15:18.348Z,6.35
2019-01-11T04:16:14.886Z,6.43
2019-01-11T04:17:59.551Z,6.36
2019-01-11T04:18:58.871Z,6.39
2019-01-11T04:19:53.362Z,6.19
2019-01-11T04:20:55.764Z,6.16
2019-01-11T04:21:50.351Z,6.13
2019-01-11T05:07:30.768Z,5.8
2019-01-11T05:08:30.065Z,5.85
2019-01-11T05:09:24.501Z,5.78
2019-01-11T05:10:17.339Z,5.65
2019-01-11T05:11:10.688Z,5.69
2019-01-11T05:12:03.278Z,5.66
2019-01-11T05:12:55.489Z,5.67
2019-01-11T05:13:48.391Z,5.77
2019-01-11T05:14:42.622Z,5.78
2019-01-11T05:15:37.705Z,5.81
2019-01-11T05:16:32.138Z,5.87
2019-01-11T05:17:25.779Z,5.95
2019-01-11T05:18:19.381Z,5.96
2019-01-11T05:19:11.999Z,5.98
2019-01-11T05:20:05.461Z,5.93
2019-01-11T05:21:00.040Z,5.85
2019-01-11T05:22:01.401Z,5.87
2019-01-11T05:22:55.434Z,5.87
2019-01-11T05:23:49.728Z,5.88
2019-01-11T05:24:44.131Z,6.02
2019-01-11T05:25:38.366Z,5.99
2019-01-11T05:26:34.485Z,6.13
2019-01-11T05:27:28.592Z,6.08
2019-01-11T05:28:21.281Z,6.32
2019-01-11T05:29:13.762Z,6.38
2019-01-11T05:30:09.804Z,6.42
2019-01-11T05:31:12.861Z,6.58
2019-01-11T05:32:06.563Z,6.5
2019-01-11T05:33:00.649Z,6.68
2019-01-11T05:33:54.506Z,6.64
2019-01-11T05:34:51.202Z,6.75
2019-01-11T05:35:49.476Z,6.87
2019-01-11T05:36:44.605Z,6.99
2019-01-11T05:37:38.692Z,7.14
2019-01-11T05:38:35.311Z,7.16
2019-01-11T05:39:32.198Z,7.15
2019-01-11T05:40:32.861Z,7.11
2019-01-11T05:41:30.792Z,7.05
2019-01-11T05:42:25.742Z,7.11
2019-01-11T05:43:19.352Z,7.09
2019-01-11T05:44:11.650Z,7.14
2019-01-11T05:45:07.054Z,7.08
2019-01-11T05:46:03.870Z,7.11
2019-01-11T05:46:58.209Z,7.12
2019-01-11T05:47:51.201Z,7.18
2019-01-11T05:49:34.013Z,7.19
2019-01-11T05:50:46.741Z,7.15
2019-01-11T05:51:45.174Z,7.12
2019-01-11T05:52:42.186Z,7.14
2019-01-11T05:53:40.958Z,7.14
2019-01-11T05:54:37.984Z,7.12
2019-01-11T05:58:30.994Z,7.16
2019-01-11T05:59:26.780Z,7.11
2019-01-11T06:00:23.709Z,7.19
2019-01-11T06:01:19.310Z,7.32
2019-01-11T06:02:15.219Z,7.16
2019-01-11T06:04:21.412Z,7.24
2019-01-11T06:05:25.825Z,7.29
2019-01-11T06:06:21.522Z,7.24
2019-01-11T06:07:16.420Z,7.21
2019-01-11T06:08:11.332Z,7.16
2019-01-11T06:09:07.083Z,7.14
2019-01-11T06:13:11.777Z,7.15
2019-01-11T06:15:07.476Z,7.18
2019-01-11T06:16:10.281Z,7.14
2019-01-11T06:17:08.860Z,7.11
2019-01-11T06:18:06.469Z,7.14
2019-01-11T06:19:09.988Z,7.21
2019-01-11T06:20:07.170Z,7.36
2019-01-11T06:21:19.581Z,7.44
2019-01-11T06:22:16.573Z,7.47
2019-01-11T06:23:18.841Z,7.51
2019-01-11T06:25:12.291Z,7.63
2019-01-11T06:26:07.040Z,7.45
2019-01-11T06:27:02.613Z,7.45
2019-01-11T06:27:56.967Z,7.34
2019-01-11T06:28:50.147Z,7.3
2019-01-11T06:29:45.908Z,7.3
2019-01-11T06:30:40.443Z,7.36
2019-01-11T06:31:34.572Z,7.33
2019-01-11T06:32:28.819Z,7.27
2019-01-11T06:33:25.628Z,7.16
2019-01-11T06:34:25.387Z,7.23
2019-01-11T06:35:21.241Z,7.34
2019-01-11T06:36:16.689Z,7.24
2019-01-11T06:42:10.408Z,7.34
2019-01-11T06:43:05.640Z,7.37
2019-01-11T06:44:01.452Z,7.33
2019-01-11T06:45:02.537Z,7.41
2019-01-11T06:45:57.580Z,7.37
2019-01-11T06:46:55.935Z,7.29
2019-01-11T06:47:48.763Z,7.23
2019-01-11T06:48:45.793Z,7.3
2019-01-11T06:49:39.328Z,7.32
2019-01-11T06:50:50.313Z,7.48
2019-01-11T06:51:54.111Z,7.55
2019-01-11T06:53:49.510Z,7.62
2019-01-11T06:56:05.447Z,7.73
2019-01-11T06:57:07.281Z,7.82
2019-01-11T06:58:03.458Z,7.94
2019-01-11T06:59:55.337Z,7.85
2019-01-11T07:01:04.050Z,7.86
2019-01-11T07:02:17.586Z,7.81
2019-01-11T07:03:28.671Z,7.79
2019-01-11T07:04:24.029Z,7.86
2019-01-11T07:06:56.987Z,7.99
2019-01-11T07:07:59.424Z,7.84
2019-01-11T07:08:59.179Z,7.82
2019-01-11T07:11:14.443Z,7.95
2019-01-11T07:12:12.848Z,7.95
2019-01-11T07:13:15.019Z,7.92
2019-01-11T07:14:07.983Z,7.91
2019-01-11T07:15:12.635Z,7.99
2019-01-11T07:17:49.573Z,8.37
2019-01-11T07:19:51.737Z,8.31
2019-01-11T07:21:01.627Z,8.29
2019-01-11T07:22:12.622Z,8.31
2019-01-11T07:23:13.945Z,8.22
2019-01-11T07:25:42.615Z,8.21
2019-01-11T07:26:43.970Z,8.22
2019-01-11T07:27:39.741Z,8.18
2019-01-11T07:28:42.202Z,8.18
2019-01-11T07:30:21.157Z,8.17
2019-01-11T07:33:55.512Z,8.36
2019-01-11T07:35:06.028Z,8.31
2019-01-11T07:35:58.547Z,8.34
2019-01-11T07:36:50.984Z,8.2
2019-01-11T07:37:50.310Z,8.13
2019-01-11T07:38:45.190Z,8.2
2019-01-11T07:39:39.546Z,8.18
2019-01-11T07:40:41.568Z,8.09
2019-01-11T07:41:39.540Z,8.21
2019-01-11T07:42:33.233Z,8.14
2019-01-11T07:43:26.628Z,8.27
2019-01-11T07:44:23.290Z,8.29
2019-01-11T07:45:20.960Z,8.32
2019-01-11T07:46:21.327Z,8.31
2019-01-11T07:47:20.100Z,8.22
2019-01-11T07:48:19.314Z,8.21
2019-01-11T07:49:15.265Z,8.32
2019-01-11T07:50:34.892Z,8.37
2019-01-11T07:51:43.672Z,8.34
2019-01-11T07:52:44.480Z,8.2
2019-01-11T07:54:39.109Z,8.18
2019-01-11T07:56:34.700Z,8.13
2019-01-11T07:57:33.875Z,8.13
2019-01-11T07:58:29.568Z,8.07
2019-01-11T07:59:26.296Z,8
2019-01-11T08:00:28.605Z,7.94
2019-01-11T08:02:32.089Z,7.95
2019-01-11T08:03:46.177Z,7.95
2019-01-11T08:04:47.378Z,7.96
2019-01-11T08:05:41.733Z,8.02
2019-01-11T08:06:44.261Z,8.18
2019-01-11T08:07:45.079Z,8.17
2019-01-11T08:08:49.466Z,8.17
2019-01-11T08:10:50.763Z,8.14
2019-01-11T08:12:54.897Z,8.12
2019-01-11T08:14:38.493Z,8.2
2019-01-11T08:15:32.736Z,8.2
2019-01-11T08:16:27.087Z,8.2
2019-01-11T08:17:27.578Z,8.22
2019-01-11T08:18:31.693Z,8.2
2019-01-11T08:19:34.601Z,8.17
2019-01-11T08:20:28.618Z,8.14
2019-01-11T08:23:05.815Z,8.2
2019-01-11T08:24:12.046Z,8.17
2019-01-11T08:25:08.871Z,8.34
2019-01-11T08:26:21.104Z,8.31
2019-01-11T08:27:31.338Z,8.34
2019-01-11T08:28:48.227Z,8.25
2019-01-11T08:34:20.598Z,8.18
2019-01-11T08:35:37.094Z,8.13
2019-01-11T08:36:36.011Z,8.18
2019-01-11T08:37:42.714Z,8.28
2019-01-11T08:38:52.749Z,8.28
2019-01-11T08:39:54.483Z,8.31
2019-01-11T08:40:54.449Z,8.34
2019-01-11T08:41:53.170Z,8.42
2019-01-11T08:42:51.313Z,8.47
2019-01-11T08:43:54.167Z,8.45
2019-01-11T08:44:54.350Z,8.39
2019-01-11T08:45:54.721Z,8.31
2019-01-11T08:47:01.894Z,8.29
2019-01-11T08:48:22.838Z,8.37
2019-01-11T08:49:42.469Z,8.42
2019-01-11T08:50:51.427Z,8.5
2019-01-11T08:56:24.001Z,8.47
2019-01-11T08:57:22.575Z,8.57
2019-01-11T09:02:41.916Z,8.46
2019-01-11T09:06:05.324Z,8.37
2019-01-11T09:08:41.278Z,8.58
2019-01-11T09:53:03.887Z,9.19
2019-01-11T09:55:52.050Z,9.12
2019-01-11T09:57:03.661Z,8.89
2019-01-11T09:58:02.714Z,8.78
2019-01-11T09:59:00.746Z,8.88
2019-01-11T10:03:00.910Z,8.96
2019-01-11T10:03:57.020Z,8.91
2019-01-11T10:05:03.382Z,8.88
2019-01-11T10:06:06.002Z,8.91
2019-01-11T10:06:57.878Z,8.89
2019-01-11T10:09:14.708Z,9.08
2019-01-11T10:10:12.817Z,9.08
2019-01-11T10:11:15.865Z,9.04
2019-01-11T10:12:10.942Z,8.98
2019-01-11T10:13:13.466Z,9.12
2019-01-11T10:14:07.092Z,9.08
2019-01-11T10:14:59.990Z,9.1
2019-01-11T10:15:54.639Z,9.12
2019-01-11T10:16:48.985Z,9.16
2019-01-11T10:18:05.695Z,9.1
2019-01-11T10:23:31.570Z,9.23
2019-01-11T10:24:30.333Z,9.22
2019-01-11T10:25:22.526Z,9.27
2019-01-11T10:26:16.891Z,9.32
2019-01-11T10:27:12.037Z,9.3
2019-01-11T10:28:06.094Z,9.31
2019-01-11T10:29:04.173Z,9.34
2019-01-11T10:30:01.589Z,9.24
2019-01-11T10:31:04.761Z,9.22
2019-01-11T11:10:59.433Z,8.7
2019-01-11T11:12:09.734Z,8.68
2019-01-11T11:13:21.801Z,8.52
2019-01-11T11:15:29.636Z,8.6
2019-01-11T11:17:06.323Z,8.61
2019-01-11T13:20:31.701Z,10.17
2019-01-11T13:21:44.513Z,10.2
2019-01-11T13:27:02.892Z,10.2
2019-01-11T13:28:10.697Z,10.25
2019-01-11T13:32:41.786Z,10.17
2019-01-11T13:33:40.517Z,10.25
2019-01-11T13:34:54.862Z,10.25
2019-01-11T13:41:58.118Z,10.36
2019-01-11T13:44:41.054Z,10.49
2019-01-11T13:45:23.528Z,10.34
2019-01-11T13:46:03.823Z,10.32
2019-01-11T13:46:45.247Z,10.31
2019-01-11T13:47:34.307Z,10.36
2019-01-11T13:48:16.661Z,10.34
2019-01-11T13:48:57.571Z,10.36
2019-01-11T13:49:40.874Z,10.36
2019-01-11T13:50:21.092Z,10.29
2019-01-11T13:51:01.451Z,10.22
2019-01-11T13:51:42.317Z,10.24
2019-01-11T13:52:23.868Z,10.22
2019-01-11T13:53:05.356Z,10.22
2019-01-11T13:53:46.241Z,10.34
2019-01-11T13:54:27.917Z,10.32
2019-01-11T13:55:09.609Z,10.31
2019-01-11T13:55:50.508Z,10.28
2019-01-11T13:56:30.854Z,10.26
2019-01-11T13:57:12.666Z,10.18
2019-01-11T13:57:53.126Z,10.22
2019-01-11T13:58:33.532Z,10.25
2019-01-11T13:59:15.054Z,10.34
2019-01-11T13:59:55.566Z,10.18
2019-01-11T14:00:36.638Z,10.22
2019-01-11T14:01:17.185Z,10.22
2019-01-11T14:01:58.347Z,10.22
2019-01-11T14:02:38.723Z,10.26
2019-01-11T14:03:20.187Z,10.24
2019-01-11T14:04:07.879Z,10.17
2019-01-11T14:04:48.275Z,10.2
2019-01-11T14:05:29.725Z,10.18
2019-01-11T14:06:11.070Z,10.24
2019-01-11T14:06:52.424Z,10.2
2019-01-11T14:07:33.528Z,10.17
2019-01-11T14:08:14.496Z,10.16
2019-01-11T14:08:54.791Z,10.13
2019-01-11T14:09:35.375Z,10.07
2019-01-11T14:10:15.816Z,9.99
2019-01-11T14:10:56.187Z,9.99
2019-01-11T14:11:39.460Z,9.98
2019-01-11T14:12:19.858Z,9.95
2019-01-11T14:13:00.556Z,9.92
2019-01-11T14:13:41.112Z,9.93
2019-01-11T14:14:21.563Z,9.92
2019-01-11T14:15:02.508Z,9.92
2019-01-11T14:15:44.443Z,9.85
2019-01-11T14:16:24.448Z,9.89
2019-01-11T14:17:04.827Z,9.85
2019-01-11T14:17:54.133Z,9.89
2019-01-11T14:18:36.675Z,9.91
2019-01-11T14:19:17.646Z,9.96
2019-01-11T14:20:00.463Z,9.95
2019-01-11T14:20:40.763Z,9.85
2019-01-11T14:21:28.189Z,9.8
2019-01-11T14:23:20.877Z,9.88
2019-01-11T14:29:08.492Z,9.68
2019-01-11T14:33:20.905Z,9.63
2019-01-11T14:34:13.892Z,9.55
2019-01-11T14:35:06.202Z,9.6
2019-01-11T14:35:58.960Z,9.58
2019-01-11T14:37:18.537Z,9.63
2019-01-11T14:39:13.629Z,9.75
2019-01-11T14:40:08.099Z,9.92
2019-01-11T14:41:13.785Z,9.89
2019-01-11T14:43:19.503Z,9.98
2019-01-11T14:44:21.778Z,10.02
2019-01-11T14:50:06.462Z,9.96
2019-01-11T14:51:01.011Z,10.04
2019-01-11T14:51:55.407Z,9.96
2019-01-11T14:52:54.277Z,10.04
2019-01-11T14:54:05.961Z,10.06
2019-01-11T14:55:08.590Z,10.06
2019-01-11T14:57:20.822Z,10.2
2019-01-11T14:58:18.764Z,10.25
2019-01-11T14:59:17.162Z,10.2
2019-01-11T15:03:12.637Z,10.26
2019-01-11T15:05:22.290Z,10.1
2019-01-11T15:06:28.925Z,10.13
2019-01-11T15:07:21.357Z,10.17
2019-01-11T15:08:33.915Z,10.24
2019-01-11T15:09:29.756Z,10.2
2019-01-11T15:17:58.943Z,10.28
2019-01-11T15:19:15.682Z,10.25
2019-01-11T15:23:13.438Z,10.24
2019-01-11T15:27:05.565Z,10.32
2019-01-11T15:27:59.927Z,10.35
2019-01-11T15:31:31.283Z,10.22
2019-01-11T15:33:48.808Z,10.22
2019-01-11T15:42:12.412Z,10.26
2019-01-11T15:47:33.301Z,10.29
2019-01-11T15:48:30.135Z,10.25
2019-01-11T15:49:23.207Z,10.31
2019-01-11T15:50:17.120Z,10.32
2019-01-11T15:51:13.972Z,10.34
2019-01-11T15:52:09.791Z,10.28
2019-01-11T15:58:57.914Z,10.69
2019-01-11T16:07:20.830Z,10.73
2019-01-11T16:13:54.420Z,11.01
2019-01-11T16:19:22.527Z,10.88
2019-01-11T16:20:15.696Z,10.91
2019-01-11T16:21:11.721Z,10.84
2019-01-11T16:22:05.679Z,10.7
2019-01-11T16:22:59.287Z,10.76
2019-01-11T16:23:51.977Z,10.78
2019-01-11T16:24:56.820Z,10.7
2019-01-11T16:26:58.777Z,10.87
2019-01-11T16:27:53.705Z,10.84
2019-01-11T16:29:04.686Z,10.73
2019-01-11T16:30:03.181Z,10.72
2019-01-11T16:30:57.890Z,10.6
2019-01-11T16:31:51.696Z,10.55
2019-01-11T16:32:44.907Z,10.58
2019-01-11T17:11:15.823Z,10.24
2019-01-11T17:12:09.953Z,10.22
2019-01-11T17:13:09.073Z,10.24
2019-01-11T17:14:05.119Z,10.35
2019-01-11T17:14:58.837Z,10.35
2019-01-11T17:15:50.992Z,10.26
2019-01-11T17:16:47.275Z,10.2
2019-01-11T17:17:41.842Z,10.22
2019-01-11T17:18:36.797Z,10.38
2019-01-11T17:19:30.825Z,10.31
2019-01-11T17:20:24.090Z,10.36
2019-01-11T17:21:19.415Z,10.52
2019-01-11T17:22:12.228Z,10.57
2019-01-11T17:23:04.211Z,10.54
2019-01-11T17:23:57.777Z,10.46
2019-01-11T17:24:54.914Z,10.46
2019-01-11T17:25:51.289Z,10.52
2019-01-11T17:26:43.570Z,10.44
2019-01-11T17:27:36.232Z,10.42
2019-01-11T17:28:32.155Z,10.47
2019-01-11T17:29:30.693Z,10.51
2019-01-11T17:30:27.167Z,10.69
2019-01-11T17:31:31.037Z,10.7
2019-01-11T17:32:26.437Z,10.76
2019-01-11T17:33:23.839Z,10.8
2019-01-11T17:34:18.413Z,10.83
2019-01-11T17:35:12.882Z,10.72
2019-01-11T17:36:08.722Z,10.73
2019-01-11T17:37:03.797Z,10.7
2019-01-11T17:37:57.280Z,10.75
2019-01-11T17:38:49.677Z,10.66
2019-01-11T17:39:45.853Z,10.55
2019-01-11T17:40:37.939Z,10.66
2019-01-11T17:41:38.390Z,10.6
2019-01-11T17:42:35.078Z,10.66
2019-01-11T17:43:30.897Z,10.72
2019-01-11T17:44:26.218Z,10.73
2019-01-11T17:45:19.505Z,10.69
2019-01-11T17:46:12.350Z,10.69
2019-01-11T17:47:13.424Z,10.72
2019-01-11T17:48:10.784Z,10.84
2019-01-11T17:49:07.817Z,10.73
2019-01-11T17:50:03.615Z,10.73
2019-01-11T17:50:58.474Z,10.76
2019-01-11T17:51:50.334Z,10.7
2019-01-11T17:52:47.732Z,10.76
2019-01-11T17:53:40.928Z,10.75
2019-01-11T17:54:43.311Z,10.75
2019-01-11T17:55:37.654Z,10.81
2019-01-11T17:56:31.643Z,10.86
2019-01-11T17:57:26.601Z,10.91
2019-01-11T17:58:22.904Z,10.86
2019-01-11T17:59:17.833Z,10.88
2019-01-11T18:01:21.667Z,10.9
2019-01-11T18:02:17.147Z,10.87
2019-01-11T18:03:13.729Z,11.02
2019-01-11T18:04:08.876Z,11.09
2019-01-11T18:05:03.765Z,11.09
2019-01-11T18:05:57.545Z,10.99
2019-01-11T18:06:52.088Z,10.98
2019-01-11T18:07:45.018Z,10.91
2019-01-11T18:08:41.884Z,10.86
2019-01-11T18:09:36.940Z,11.02
2019-01-11T18:10:30.518Z,11.02
2019-01-11T18:11:25.039Z,10.95
2019-01-11T18:12:20.563Z,10.9
2019-01-11T18:13:16.883Z,10.81
2019-01-11T18:14:09.311Z,10.91
2019-01-11T18:15:04.237Z,10.84